createdAt,value
2023-08-12T00:04:28.541Z,94292.73
2023-08-12T00:09:36.009Z,94302.09
2023-08-12T00:14:42.979Z,94290.63
2023-08-12T00:19:49.769Z,94289.27
2023-08-12T00:24:57.158Z,94282.84
2023-08-12T00:30:04.513Z,94266.98
2023-08-12T00:35:11.811Z,94267.02
2023-08-12T00:40:19.023Z,94264.80
2023-08-12T00:45:26.804Z,94269.28
2023-08-12T00:50:34.241Z,94260.86
2023-08-12T00:55:41.251Z,94253.61
2023-08-12T01:00:49.057Z,94243.52
2023-08-12T01:05:56.259Z,94241.66
2023-08-12T01:11:13.189Z,94243.47
2023-08-12T01:16:23.846Z,94257.11
2023-08-12T01:21:33.599Z,94242.61
2023-08-12T01:26:40.457Z,94241.02
2023-08-12T01:32:11.275Z,94240.16
2023-08-12T01:37:22.706Z,94241.50
2023-08-12T01:42:31.466Z,94247.61
2023-08-12T01:47:38.979Z,94250.03
2023-08-12T01:52:46.318Z,94243.02
2023-08-12T01:57:53.854Z,94235.67
2023-08-12T02:03:01.105Z,94231.13
2023-08-12T02:08:09.058Z,94241.02
2023-08-12T02:13:16.617Z,94239.43
2023-08-12T02:18:23.927Z,94239.37
2023-08-12T02:23:31.052Z,94235.48
2023-08-12T02:28:38.307Z,94237.39
2023-08-12T02:33:45.979Z,94234.74
2023-08-12T02:38:53.584Z,94238.04
2023-08-12T02:44:01.048Z,94224.71
2023-08-12T02:49:11.578Z,94223.55
2023-08-12T02:54:16.892Z,94226.95
2023-08-12T02:59:23.773Z,94220.53
2023-08-12T03:04:31.991Z,94218.05
2023-08-12T03:09:39.439Z,94215.59
2023-08-12T03:14:46.505Z,94220.22
2023-08-12T03:19:53.420Z,94216.41
2023-08-12T03:25:00.712Z,94218.03
2023-08-12T03:30:09.477Z,94215.28
2023-08-12T03:35:18.501Z,94056.32
2023-08-12T03:40:25.182Z,94223.30
2023-08-12T03:45:32.034Z,94230.87
2023-08-12T03:50:40.657Z,94228.97
2023-08-12T03:55:47.467Z,94228.62
2023-08-12T04:00:54.319Z,94228.97
2023-08-12T04:06:01.291Z,94228.59
2023-08-12T04:11:08.236Z,94224.48
2023-08-12T04:16:15.559Z,94218.02
2023-08-12T04:21:22.427Z,94216.88
2023-08-12T04:26:29.374Z,94221.24
2023-08-12T04:31:36.635Z,94222.30
2023-08-12T04:36:44.530Z,94217.58
2023-08-12T04:41:51.686Z,94210.39
2023-08-12T04:46:58.648Z,94218.52
2023-08-12T04:52:05.451Z,94219.55
2023-08-12T04:57:12.508Z,94220.12
2023-08-12T05:02:21.307Z,94223.78
2023-08-12T05:07:28.453Z,94227.16
2023-08-12T05:12:35.237Z,94229.91
2023-08-12T05:17:42.050Z,94228.48
2023-08-12T05:22:49.136Z,94224.67
2023-08-12T05:27:56.320Z,94226.13
2023-08-12T05:33:04.162Z,94226.67
2023-08-12T05:38:11.627Z,94222.92
2023-08-12T05:43:19.024Z,94220.91
2023-08-12T05:48:25.877Z,94224.23
2023-08-12T05:53:33.572Z,94224.73
2023-08-12T05:58:40.460Z,94220.33
2023-08-12T06:03:47.492Z,94225.59
2023-08-12T06:08:54.454Z,94225.88
2023-08-12T06:14:01.528Z,94218.17
2023-08-12T06:19:09.072Z,94219.17
2023-08-12T06:24:16.088Z,94217.45
2023-08-12T06:29:22.981Z,94222.50
2023-08-12T06:34:29.927Z,94221.56
2023-08-12T06:39:36.957Z,94220.93
2023-08-12T06:44:44.002Z,94217.89
2023-08-12T06:49:51.336Z,94218.45
2023-08-12T06:54:58.297Z,94222.47
2023-08-12T07:00:06.703Z,94223.87
2023-08-12T07:05:13.571Z,94222.92
2023-08-12T07:10:23.003Z,94225.58
2023-08-12T07:15:29.144Z,94225.80
2023-08-12T07:20:37.710Z,94217.11
2023-08-12T07:25:44.720Z,94215.67
2023-08-12T07:30:54.758Z,94203.45
2023-08-12T07:36:02.049Z,94209.42
2023-08-12T07:41:09.488Z,94203.89
2023-08-12T07:46:16.530Z,94213.78
2023-08-12T07:51:23.778Z,94212.02
2023-08-12T07:56:32.010Z,94208.73
2023-08-12T08:01:39.388Z,94215.09
2023-08-12T08:06:48.632Z,94203.59
2023-08-12T08:11:57.336Z,94205.68
2023-08-12T08:17:03.945Z,94195.42
2023-08-12T08:22:11.240Z,94202.44
2023-08-12T08:27:18.328Z,94196.02
2023-08-12T08:32:25.310Z,94184.41
2023-08-12T08:37:32.136Z,94186.09
2023-08-12T08:42:40.298Z,94176.16
2023-08-12T08:47:48.497Z,94176.50
2023-08-12T08:52:55.792Z,94182.61
2023-08-12T08:58:05.602Z,94182.81
2023-08-12T09:03:14.260Z,94180.95
2023-08-12T09:08:21.310Z,94181.41
2023-08-12T09:13:28.339Z,94180.62
2023-08-12T09:18:35.613Z,94173.80
2023-08-12T09:23:45.808Z,94173.10
2023-08-12T09:28:55.012Z,94169.64
2023-08-12T09:34:09.072Z,94176.64
2023-08-12T09:39:16.959Z,94170.67
2023-08-12T09:44:24.770Z,94168.91
2023-08-12T09:49:31.722Z,94174.09
2023-08-12T09:54:39.064Z,94173.92
2023-08-12T09:59:48.288Z,94174.87
2023-08-12T10:04:57.955Z,94176.58
2023-08-12T10:10:07.013Z,94176.77
2023-08-12T10:15:14.710Z,94171.54
2023-08-12T10:20:27.618Z,94172.56
2023-08-12T10:25:35.782Z,94178.37
2023-08-12T10:30:43.842Z,94173.63
2023-08-12T10:35:52.480Z,94157.01
2023-08-12T10:41:20.023Z,94160.11
2023-08-12T10:46:36.977Z,94152.71
2023-08-12T10:51:55.257Z,94147.33
2023-08-12T10:57:17.252Z,94144.38
2023-08-12T11:02:30.815Z,94129.58
2023-08-12T11:07:45.018Z,94135.59
2023-08-12T11:12:59.894Z,94130.66
2023-08-12T11:18:08.669Z,94121.27
2023-08-12T11:23:16.436Z,94126.42
2023-08-12T11:28:23.566Z,94126.29
2023-08-12T11:33:30.628Z,94130.75
2023-08-12T11:38:37.912Z,94130.02
2023-08-12T11:43:44.733Z,94122.90
2023-08-12T11:48:52.891Z,94118.44
2023-08-12T11:54:01.042Z,94112.20
2023-08-12T11:59:08.364Z,94107.19
2023-08-12T12:04:15.472Z,94106.12
2023-08-12T12:09:22.823Z,94101.63
2023-08-12T12:14:30.868Z,94099.77
2023-08-12T12:19:38.133Z,94105.45
2023-08-12T12:24:51.637Z,94101.44
2023-08-12T12:29:58.636Z,94083.16
2023-08-12T12:35:07.698Z,94079.42
2023-08-12T12:40:15.640Z,94086.56
2023-08-12T12:45:24.615Z,94085.89
2023-08-12T12:50:31.803Z,94077.16
2023-08-12T12:55:39.511Z,94081.20
2023-08-12T13:00:46.391Z,94074.44
2023-08-12T13:05:54.189Z,94075.87
2023-08-12T13:11:01.188Z,94077.98
2023-08-12T13:16:09.749Z,94065.27
2023-08-12T13:21:19.174Z,94057.36
2023-08-12T13:26:25.556Z,94062.99
2023-08-12T13:31:32.439Z,94047.25
2023-08-12T13:36:39.621Z,94052.98
2023-08-12T13:41:46.636Z,94049.03
2023-08-12T13:46:53.436Z,94045.72
2023-08-12T13:52:02.008Z,94041.22
2023-08-12T13:57:09.214Z,94040.77
2023-08-12T14:02:17.355Z,94047.09
2023-08-12T14:07:24.667Z,94035.75
2023-08-12T14:12:31.768Z,94032.66
2023-08-12T14:17:38.772Z,94023.58
2023-08-12T14:22:46.497Z,94018.16
2023-08-12T14:27:53.432Z,94017.20
2023-08-12T14:33:00.604Z,94010.24
2023-08-12T14:38:07.444Z,94001.25
2023-08-12T14:43:14.681Z,94008.69
2023-08-12T14:48:21.571Z,94007.74
2023-08-12T14:53:29.377Z,94003.03
2023-08-12T14:58:37.353Z,94006.69
2023-08-12T15:03:44.546Z,93997.89
2023-08-12T15:08:52.180Z,94000.00
2023-08-12T15:14:00.148Z,93989.58
2023-08-12T15:19:07.519Z,93995.28
2023-08-12T15:24:15.176Z,93991.39
2023-08-12T15:29:22.035Z,93992.64
2023-08-12T15:34:29.248Z,93996.53
2023-08-12T15:39:36.260Z,93993.14
2023-08-12T15:44:43.499Z,93984.83
2023-08-12T15:49:50.870Z,93992.36
2023-08-12T15:54:58.375Z,93985.67
2023-08-12T16:00:08.396Z,93984.34
2023-08-12T16:05:15.312Z,93974.80
2023-08-12T16:10:22.280Z,93979.22
2023-08-12T16:15:29.137Z,93987.48
2023-08-12T16:20:36.084Z,93983.05
2023-08-12T16:25:43.031Z,93978.77
2023-08-12T16:30:50.126Z,93976.40
2023-08-12T16:35:57.427Z,93978.81
2023-08-12T16:41:05.294Z,93979.77
2023-08-12T16:46:12.538Z,93967.89
2023-08-12T16:51:19.457Z,93972.47
2023-08-12T16:56:26.440Z,93967.47
2023-08-12T17:01:33.957Z,93974.11
2023-08-12T17:06:41.779Z,93970.07
2023-08-12T17:11:49.206Z,93973.03
2023-08-12T17:16:56.383Z,93960.39
2023-08-12T17:22:03.515Z,93964.45
2023-08-12T17:27:11.090Z,93961.89
2023-08-12T17:32:18.132Z,93965.76
2023-08-12T17:37:28.462Z,93972.34
2023-08-12T17:42:36.045Z,93977.30
2023-08-12T17:47:44.492Z,93973.36
2023-08-12T17:52:51.484Z,93972.05
2023-08-12T17:57:59.689Z,93974.02
2023-08-12T18:03:07.308Z,93974.19
2023-08-12T18:08:14.535Z,93974.72
2023-08-12T18:13:21.474Z,93980.33
2023-08-12T18:18:29.300Z,93980.50
2023-08-12T18:23:36.517Z,93989.25
2023-08-12T18:28:43.619Z,94000.40
2023-08-12T18:33:50.522Z,94008.27
2023-08-12T18:38:57.926Z,94015.73
2023-08-12T18:44:05.130Z,94016.05
2023-08-12T18:49:11.989Z,94027.19
2023-08-12T18:54:19.120Z,94024.55
2023-08-12T18:59:26.415Z,94033.64
2023-08-12T19:04:33.594Z,94037.27
2023-08-12T19:09:40.524Z,94048.11
2023-08-12T19:14:48.186Z,94047.09
2023-08-12T19:19:55.313Z,94050.63
2023-08-12T19:25:02.654Z,94052.50
2023-08-12T19:30:11.393Z,94050.16
2023-08-12T19:35:18.961Z,94050.39
2023-08-12T19:40:27.444Z,94051.62
2023-08-12T19:45:34.702Z,94050.00
2023-08-12T19:50:43.220Z,94046.84
2023-08-12T19:55:50.584Z,94042.60
2023-08-12T20:00:57.618Z,94047.27
2023-08-12T20:06:05.679Z,94048.75
2023-08-12T20:11:12.772Z,94044.31
2023-08-12T20:16:19.683Z,94038.70
2023-08-12T20:21:26.704Z,94038.54
2023-08-12T20:26:35.182Z,94044.72
2023-08-12T20:31:42.251Z,94038.77
2023-08-12T20:36:49.771Z,94041.86
2023-08-12T20:41:56.559Z,94042.03
2023-08-12T20:47:03.929Z,94043.45
2023-08-12T20:52:11.116Z,94059.91
2023-08-12T20:57:18.152Z,93902.47
2023-08-12T21:02:25.634Z,94060.55
2023-08-12T21:07:32.651Z,94062.52
2023-08-12T21:12:40.640Z,94057.23
2023-08-12T21:17:47.904Z,94049.41
2023-08-12T21:22:54.964Z,94041.92
2023-08-12T21:28:02.132Z,94046.00
2023-08-12T21:33:09.522Z,94052.33
2023-08-12T21:38:16.400Z,94061.53
2023-08-12T21:43:23.765Z,94046.67
2023-08-12T21:48:31.098Z,94057.13
2023-08-12T21:53:38.019Z,94037.89
2023-08-12T21:58:45.657Z,94050.72
2023-08-12T22:03:52.657Z,94041.31
2023-08-12T22:08:59.709Z,94040.36
2023-08-12T22:14:07.121Z,94036.11
2023-08-12T22:19:14.349Z,94030.56
2023-08-12T22:24:21.974Z,94026.45
2023-08-12T22:29:28.958Z,94020.75
2023-08-12T22:34:36.914Z,94024.64
2023-08-12T22:39:44.126Z,94049.08
2023-08-12T22:44:51.908Z,94028.93
2023-08-12T22:49:59.285Z,94022.59
2023-08-12T22:55:07.405Z,94018.39
2023-08-12T23:00:15.562Z,94016.24
2023-08-12T23:05:22.597Z,94010.81
2023-08-12T23:10:29.797Z,94006.69
2023-08-12T23:15:37.574Z,94004.90
2023-08-12T23:20:45.006Z,93997.17
2023-08-12T23:25:52.631Z,94003.86
2023-08-12T23:31:00.232Z,94011.08
2023-08-12T23:36:07.615Z,94002.16
2023-08-12T23:41:15.028Z,94013.89
2023-08-12T23:46:22.119Z,94001.06
2023-08-12T23:51:29.576Z,94004.34
2023-08-12T23:56:38.023Z,94001.27
